KOCQ

Oconto-J Douglas Bake Municipal Airport

Oconto, Wisconsin, USA
METAR KOCQ 230955Z AUTO 30004KT 10SM SCT028 04/00 A3015 RMK AO1 T00390001
Observed Flight Rules
Oct-23 @ 09:55 UTC (14 minutes ago) Visual Flight Rules
Wind Visibility Clouds
300° at 4 knots 10 miles
  • Scattered at 2,800' AGL
Temperatures Readings
Current 4°C / 39°F
Dewpoint 0°C / 32°F
Humidity 75%
Altimeter 30.15" Hg
Pressure 1021 hPa
Elevation 183
METAR KOCQ 230955Z AUTO 30004KT 10SM SCT028 04/00 A3015 RMK AO1 T00390001
Observed Flight Rules
Oct-23 @ 09:55 UTC
(14 minutes ago)
VFR
Wind Visibility
300° at 4 knots 10 miles
Clouds
  • Scattered at 2,800' AGL
Temperature Dewpoint
4°C / 39°F 0°C / 32°F
Humidity Altimeter Pressure
75% 30.15" Hg 1021 hPa